createdAt,value
2023-08-17T00:00:09.897Z,8.77
2023-08-17T00:02:57.430Z,9.00
2023-08-17T00:05:25.185Z,8.48
2023-08-17T00:07:52.744Z,8.57
2023-08-17T00:10:20.163Z,8.65
2023-08-17T00:12:47.724Z,9.25
2023-08-17T00:15:15.027Z,8.55
2023-08-17T00:17:42.614Z,9.00
2023-08-17T00:20:10.945Z,8.80
2023-08-17T00:22:38.702Z,7.88
2023-08-17T00:25:06.609Z,8.55
2023-08-17T00:27:34.435Z,8.02
2023-08-17T00:30:01.811Z,8.40
2023-08-17T00:32:29.357Z,8.05
2023-08-17T00:34:56.670Z,8.40
2023-08-17T00:37:24.459Z,8.02
2023-08-17T00:39:53.126Z,8.32
2023-08-17T00:42:20.664Z,8.25
2023-08-17T00:44:48.049Z,8.05
2023-08-17T00:47:15.839Z,8.10
2023-08-17T00:49:43.399Z,7.93
2023-08-17T00:52:11.596Z,8.15
2023-08-17T00:54:39.106Z,8.35
2023-08-17T00:57:07.811Z,8.23
2023-08-17T00:59:37.096Z,7.70
2023-08-17T01:02:06.082Z,8.40
2023-08-17T01:04:33.622Z,8.35
2023-08-17T01:07:01.542Z,8.02
2023-08-17T01:09:29.339Z,8.25
2023-08-17T01:12:25.643Z,7.75
2023-08-17T01:14:59.036Z,7.82
2023-08-17T01:17:32.804Z,7.97
2023-08-17T01:20:05.171Z,8.05
2023-08-17T01:22:34.441Z,8.10
2023-08-17T01:25:01.791Z,8.10
2023-08-17T01:27:40.905Z,7.57
2023-08-17T01:30:10.824Z,8.10
2023-08-17T01:33:00.891Z,8.48
2023-08-17T01:35:48.985Z,8.02
2023-08-17T01:38:20.174Z,8.30
2023-08-17T01:40:49.119Z,8.38
2023-08-17T01:43:17.781Z,7.72
2023-08-17T01:45:45.241Z,8.63
2023-08-17T01:48:12.878Z,7.97
2023-08-17T01:50:40.538Z,8.20
2023-08-17T01:53:08.260Z,7.82
2023-08-17T01:55:36.521Z,7.90
2023-08-17T01:58:04.371Z,7.65
2023-08-17T02:00:31.662Z,8.20
2023-08-17T02:02:59.277Z,7.70
2023-08-17T02:05:29.363Z,7.82
2023-08-17T02:07:57.124Z,7.57
2023-08-17T02:10:24.473Z,8.10
2023-08-17T02:12:58.872Z,8.02
2023-08-17T02:15:29.345Z,7.20
2023-08-17T02:18:00.776Z,7.38
2023-08-17T02:20:28.141Z,7.47
2023-08-17T02:22:55.812Z,7.13
2023-08-17T02:25:23.411Z,7.72
2023-08-17T02:27:51.549Z,7.72
2023-08-17T02:30:19.477Z,7.43
2023-08-17T02:32:47.139Z,7.20
2023-08-17T02:35:14.406Z,7.45
2023-08-17T02:37:42.024Z,7.50
2023-08-17T02:40:09.792Z,8.02
2023-08-17T02:42:37.498Z,7.28
2023-08-17T02:45:05.116Z,7.38
2023-08-17T02:47:32.731Z,8.00
2023-08-17T02:50:00.209Z,7.10
2023-08-17T02:52:27.749Z,7.53
2023-08-17T02:54:55.137Z,7.53
2023-08-17T02:57:22.847Z,7.57
2023-08-17T02:59:50.154Z,7.28
2023-08-17T03:02:17.719Z,6.80
2023-08-17T03:04:44.957Z,6.78
2023-08-17T03:07:12.572Z,6.43
2023-08-17T03:09:39.925Z,6.95
2023-08-17T03:12:07.669Z,7.20
2023-08-17T03:14:34.999Z,7.25
2023-08-17T03:17:02.666Z,7.00
2023-08-17T03:19:29.959Z,6.85
2023-08-17T03:21:57.518Z,6.65
2023-08-17T03:24:24.804Z,6.53
2023-08-17T03:26:52.820Z,6.18
2023-08-17T03:29:20.187Z,6.43
2023-08-17T03:31:47.794Z,6.22
2023-08-17T03:34:15.123Z,6.60
2023-08-17T03:36:42.697Z,6.72
2023-08-17T03:39:10.039Z,7.00
2023-08-17T03:41:37.865Z,6.25
2023-08-17T03:44:07.012Z,6.88
2023-08-17T03:46:34.890Z,6.60
2023-08-17T03:49:02.219Z,6.68
2023-08-17T03:51:29.780Z,6.75
2023-08-17T03:53:57.040Z,7.20
2023-08-17T03:56:24.652Z,6.68
2023-08-17T03:58:54.016Z,6.97
2023-08-17T04:01:21.674Z,7.20
2023-08-17T04:03:49.022Z,6.72
2023-08-17T04:06:16.840Z,7.30
2023-08-17T04:08:44.186Z,7.13
2023-08-17T04:11:11.826Z,7.40
2023-08-17T04:13:44.164Z,7.43
2023-08-17T04:16:11.811Z,7.00
2023-08-17T04:18:39.159Z,7.07
2023-08-17T04:21:06.809Z,7.13
2023-08-17T04:23:34.099Z,7.68
2023-08-17T04:26:01.637Z,7.18
2023-08-17T04:28:28.982Z,7.63
2023-08-17T04:30:56.521Z,7.28
2023-08-17T04:33:23.827Z,7.03
2023-08-17T04:35:51.556Z,7.18
2023-08-17T04:38:18.864Z,7.00
2023-08-17T04:40:46.476Z,6.70
2023-08-17T04:43:14.120Z,7.28
2023-08-17T04:45:41.803Z,7.80
2023-08-17T04:48:09.368Z,7.55
2023-08-17T04:50:37.385Z,8.18
2023-08-17T04:53:04.737Z,7.55
2023-08-17T04:55:35.903Z,7.47
2023-08-17T04:58:03.317Z,7.55
2023-08-17T05:00:31.752Z,8.07
2023-08-17T05:02:59.128Z,7.80
2023-08-17T05:05:26.888Z,7.82
2023-08-17T05:07:54.359Z,7.97
2023-08-17T05:10:21.933Z,8.35
2023-08-17T05:12:49.323Z,8.15
2023-08-17T05:15:17.048Z,7.53
2023-08-17T05:17:44.357Z,8.13
2023-08-17T05:20:13.904Z,7.70
2023-08-17T05:22:41.369Z,8.40
2023-08-17T05:25:09.282Z,7.75
2023-08-17T05:27:36.562Z,7.95
2023-08-17T05:30:04.682Z,7.97
2023-08-17T05:32:32.066Z,7.93
2023-08-17T05:34:59.620Z,8.20
2023-08-17T05:37:27.624Z,8.38
2023-08-17T05:39:55.305Z,8.30
2023-08-17T05:42:22.602Z,8.07
2023-08-17T05:44:50.328Z,8.25
2023-08-17T05:47:20.145Z,8.32
2023-08-17T05:49:47.683Z,8.73
2023-08-17T05:52:14.968Z,8.82
2023-08-17T05:54:43.641Z,8.75
2023-08-17T05:57:11.791Z,8.68
2023-08-17T05:59:39.333Z,8.30
2023-08-17T06:02:06.704Z,8.68
2023-08-17T06:04:34.380Z,9.40
2023-08-17T06:07:01.843Z,8.80
2023-08-17T06:09:29.394Z,8.50
2023-08-17T06:11:56.665Z,8.63
2023-08-17T06:14:24.432Z,8.05
2023-08-17T06:16:51.729Z,8.60
2023-08-17T06:19:19.372Z,8.70
2023-08-17T06:21:46.668Z,8.77
2023-08-17T06:24:14.302Z,8.60
2023-08-17T06:26:41.584Z,8.52
2023-08-17T06:29:09.137Z,9.35
2023-08-17T06:31:36.571Z,9.13
2023-08-17T06:34:04.968Z,9.68
2023-08-17T06:36:33.684Z,9.20
2023-08-17T06:39:01.544Z,9.15
2023-08-17T06:41:28.868Z,8.77
2023-08-17T06:43:56.413Z,9.02
2023-08-17T06:46:25.609Z,9.48
2023-08-17T06:48:53.224Z,10.00
2023-08-17T06:51:20.523Z,9.60
2023-08-17T06:53:48.056Z,9.43
2023-08-17T06:56:15.340Z,9.27
2023-08-17T06:58:42.954Z,9.23
2023-08-17T07:01:10.904Z,9.98
2023-08-17T07:03:39.427Z,9.70
2023-08-17T07:06:06.941Z,10.57
2023-08-17T07:08:34.507Z,10.73
2023-08-17T07:11:01.820Z,10.40
2023-08-17T07:13:29.568Z,11.40
2023-08-17T07:15:57.051Z,11.15
2023-08-17T07:18:24.973Z,10.57
2023-08-17T07:20:52.240Z,9.38
2023-08-17T07:23:19.835Z,9.57
2023-08-17T07:25:47.272Z,10.00
2023-08-17T07:28:16.635Z,9.32
2023-08-17T07:30:43.941Z,10.18
2023-08-17T07:33:11.597Z,10.05
2023-08-17T07:35:38.981Z,10.68
2023-08-17T07:38:09.418Z,10.00
2023-08-17T07:40:37.324Z,10.10
2023-08-17T07:43:05.514Z,10.15
2023-08-17T07:45:32.829Z,10.45
2023-08-17T07:48:00.492Z,10.35
2023-08-17T07:50:27.780Z,10.20
2023-08-17T07:52:55.281Z,9.70
2023-08-17T07:55:22.663Z,10.45
2023-08-17T07:57:50.212Z,10.18
2023-08-17T08:00:17.813Z,11.15
2023-08-17T08:02:45.793Z,9.77
2023-08-17T08:05:15.224Z,10.82
2023-08-17T08:07:43.506Z,10.10
2023-08-17T08:10:10.859Z,10.35
2023-08-17T08:12:38.613Z,10.40
2023-08-17T08:15:06.340Z,10.63
2023-08-17T08:17:34.158Z,10.75
2023-08-17T08:20:01.726Z,10.05
2023-08-17T08:22:29.286Z,10.30
2023-08-17T08:24:56.775Z,10.30
2023-08-17T08:27:24.568Z,10.60
2023-08-17T08:29:52.044Z,10.95
2023-08-17T08:32:19.578Z,9.70
2023-08-17T08:34:47.120Z,10.88
2023-08-17T08:37:15.100Z,10.25
2023-08-17T08:39:53.026Z,10.45
2023-08-17T08:42:21.874Z,9.88
2023-08-17T08:44:50.648Z,10.57
2023-08-17T08:47:19.106Z,10.15
2023-08-17T08:50:03.801Z,10.75
2023-08-17T08:52:35.772Z,10.95
2023-08-17T08:55:13.367Z,10.55
2023-08-17T08:57:42.537Z,9.98
2023-08-17T09:00:10.656Z,10.77
2023-08-17T09:02:38.266Z,10.63
2023-08-17T09:05:11.335Z,9.93
2023-08-17T09:07:42.382Z,10.48
2023-08-17T09:10:11.389Z,10.88
2023-08-17T09:12:41.596Z,9.75
2023-08-17T09:15:10.215Z,10.20
2023-08-17T09:17:38.143Z,10.10
2023-08-17T09:20:08.341Z,10.00
2023-08-17T09:22:44.826Z,10.35
2023-08-17T09:25:12.387Z,10.27
2023-08-17T09:27:40.347Z,10.20
2023-08-17T09:30:10.289Z,9.57
2023-08-17T09:32:38.113Z,10.32
2023-08-17T09:35:06.730Z,9.93
2023-08-17T09:37:34.964Z,9.50
2023-08-17T09:40:02.501Z,9.40
2023-08-17T09:42:30.248Z,9.30
2023-08-17T09:44:58.937Z,9.15
2023-08-17T09:47:27.721Z,9.55
2023-08-17T09:49:55.936Z,9.05
2023-08-17T09:52:25.271Z,8.80
2023-08-17T09:54:55.625Z,9.38
2023-08-17T09:57:23.939Z,9.10
2023-08-17T09:59:54.780Z,9.32
2023-08-17T10:02:27.272Z,9.93
2023-08-17T10:04:55.200Z,9.25
2023-08-17T10:07:33.372Z,9.07
2023-08-17T10:10:05.143Z,8.68
2023-08-17T10:12:54.348Z,8.77
2023-08-17T10:15:25.296Z,8.73
2023-08-17T10:18:40.852Z,8.45
2023-08-17T10:21:18.692Z,9.05
2023-08-17T10:23:47.214Z,8.52
2023-08-17T10:26:14.595Z,8.48
2023-08-17T10:28:42.905Z,7.05
2023-08-17T10:31:11.475Z,7.32
2023-08-17T10:33:43.092Z,7.63
2023-08-17T10:36:11.582Z,7.97
2023-08-17T10:38:39.227Z,8.13
2023-08-17T10:41:18.564Z,8.48
2023-08-17T10:43:59.677Z,8.25
2023-08-17T10:46:35.080Z,9.25
2023-08-17T10:49:09.296Z,8.93
2023-08-17T10:51:36.811Z,8.88
2023-08-17T10:54:05.417Z,8.85
2023-08-17T10:56:33.889Z,9.57
2023-08-17T10:59:02.951Z,8.10
2023-08-17T11:01:36.582Z,8.57
2023-08-17T11:04:33.629Z,7.97
2023-08-17T11:07:05.144Z,8.88
2023-08-17T11:09:36.057Z,7.70
2023-08-17T11:12:03.758Z,7.65
2023-08-17T11:14:34.996Z,7.72
2023-08-17T11:17:06.477Z,7.68
2023-08-17T11:19:34.363Z,7.57
2023-08-17T11:22:01.998Z,7.63
2023-08-17T11:24:29.755Z,7.05
2023-08-17T11:26:57.874Z,7.05
2023-08-17T11:29:26.345Z,7.50
2023-08-17T11:31:54.131Z,8.02
2023-08-17T11:34:21.795Z,7.72
2023-08-17T11:36:49.088Z,7.20
2023-08-17T11:39:16.737Z,6.63
2023-08-17T11:41:44.387Z,7.50
2023-08-17T11:44:12.312Z,7.38
2023-08-17T11:46:39.720Z,6.75
2023-08-17T11:49:07.881Z,7.50
2023-08-17T11:51:36.158Z,6.90
2023-08-17T11:54:05.950Z,6.75
2023-08-17T11:56:33.254Z,6.63
2023-08-17T11:59:10.132Z,6.28
2023-08-17T12:01:37.730Z,6.20
2023-08-17T12:04:06.709Z,6.05
2023-08-17T12:06:34.281Z,6.20
2023-08-17T12:09:01.970Z,6.45
2023-08-17T12:11:30.192Z,6.13
2023-08-17T12:13:58.835Z,6.20
2023-08-17T12:16:26.168Z,6.15
2023-08-17T12:18:54.386Z,6.30
2023-08-17T12:21:26.282Z,5.45
2023-08-17T12:23:54.136Z,5.75
2023-08-17T12:26:22.500Z,6.00
2023-08-17T12:28:50.663Z,5.20
2023-08-17T12:31:22.873Z,5.80
2023-08-17T12:33:51.576Z,6.03
2023-08-17T12:36:19.841Z,5.57
2023-08-17T12:38:49.059Z,5.32
2023-08-17T12:41:17.231Z,5.03
2023-08-17T12:43:44.806Z,5.35
2023-08-17T12:46:12.214Z,4.82
2023-08-17T12:48:40.515Z,5.20
2023-08-17T12:51:07.869Z,4.97
2023-08-17T12:53:35.523Z,5.18
2023-08-17T12:56:02.979Z,5.65
2023-08-17T12:58:30.620Z,5.40
2023-08-17T13:00:58.040Z,4.80
2023-08-17T13:03:25.735Z,5.10
2023-08-17T13:05:53.159Z,5.45
2023-08-17T13:08:20.881Z,4.72
2023-08-17T13:10:48.238Z,5.05
2023-08-17T13:13:15.873Z,5.43
2023-08-17T13:15:43.225Z,5.03
2023-08-17T13:18:11.048Z,5.03
2023-08-17T13:20:39.601Z,4.53
2023-08-17T13:23:07.468Z,4.82
2023-08-17T13:25:35.057Z,4.85
2023-08-17T13:28:02.752Z,4.70
2023-08-17T13:30:30.160Z,4.47
2023-08-17T13:32:58.080Z,4.82
2023-08-17T13:35:25.738Z,4.90
2023-08-17T13:37:54.723Z,4.50
2023-08-17T13:40:22.656Z,4.70
2023-08-17T13:42:50.363Z,4.55
2023-08-17T13:45:18.142Z,4.50
2023-08-17T13:47:45.770Z,4.80
2023-08-17T13:50:13.152Z,4.20
2023-08-17T13:52:41.258Z,4.60
2023-08-17T13:55:09.102Z,4.30
2023-08-17T13:57:36.780Z,4.35
2023-08-17T14:00:05.196Z,4.57
2023-08-17T14:02:33.231Z,4.10
2023-08-17T14:05:00.852Z,4.18
2023-08-17T14:07:28.794Z,4.72
2023-08-17T14:10:07.436Z,4.20
2023-08-17T14:12:38.392Z,4.07
2023-08-17T14:15:06.473Z,4.70
2023-08-17T14:17:34.235Z,4.35
2023-08-17T14:20:01.560Z,4.10
2023-08-17T14:22:29.355Z,4.13
2023-08-17T14:24:56.872Z,3.78
2023-08-17T14:27:24.707Z,3.90
2023-08-17T14:29:52.523Z,3.85
2023-08-17T14:32:20.090Z,4.13
2023-08-17T14:34:47.381Z,3.80
2023-08-17T14:37:15.162Z,4.10
2023-08-17T14:39:42.658Z,4.20
2023-08-17T14:42:10.306Z,4.28
2023-08-17T14:44:37.668Z,4.20
2023-08-17T14:47:05.464Z,4.15
2023-08-17T14:49:32.922Z,4.38
2023-08-17T14:52:00.464Z,4.10
2023-08-17T14:54:27.761Z,4.00
2023-08-17T14:56:57.715Z,3.70
2023-08-17T14:59:25.220Z,4.10
2023-08-17T15:01:53.851Z,3.88
2023-08-17T15:04:25.876Z,3.63
2023-08-17T15:06:53.866Z,3.60
2023-08-17T15:09:21.532Z,3.78
2023-08-17T15:11:51.271Z,3.70
2023-08-17T15:14:18.667Z,3.75
2023-08-17T15:16:46.214Z,4.07
2023-08-17T15:19:15.469Z,3.42
2023-08-17T15:21:43.350Z,3.65
2023-08-17T15:24:10.942Z,4.18
2023-08-17T15:26:38.569Z,4.22
2023-08-17T15:29:05.911Z,3.80
2023-08-17T15:31:33.582Z,3.63
2023-08-17T15:34:00.957Z,3.58
2023-08-17T15:36:28.578Z,3.80
2023-08-17T15:38:55.850Z,3.50
2023-08-17T15:41:23.467Z,3.78
2023-08-17T15:43:50.836Z,3.97
2023-08-17T15:46:19.130Z,3.80
2023-08-17T15:48:46.579Z,3.97
2023-08-17T15:51:14.286Z,3.58
2023-08-17T15:53:44.465Z,3.38
2023-08-17T15:56:12.288Z,3.50
2023-08-17T15:58:39.638Z,3.65
2023-08-17T16:01:07.399Z,3.60
2023-08-17T16:03:37.256Z,3.70
2023-08-17T16:06:04.960Z,3.58
2023-08-17T16:08:47.297Z,3.40
2023-08-17T16:11:16.431Z,3.88
2023-08-17T16:13:46.013Z,3.67
2023-08-17T16:16:14.346Z,3.40
2023-08-17T16:18:41.973Z,3.83
2023-08-17T16:23:39.799Z,3.35
2023-08-17T16:26:07.372Z,3.90
2023-08-17T16:28:34.674Z,3.25
2023-08-17T16:31:05.269Z,3.53
2023-08-17T16:33:33.404Z,3.75
2023-08-17T16:36:01.101Z,3.60
2023-08-17T16:38:28.453Z,4.32
2023-08-17T16:40:56.094Z,3.95
2023-08-17T16:43:23.707Z,3.58
2023-08-17T16:45:51.550Z,3.78
2023-08-17T16:50:51.946Z,3.83
2023-08-17T16:53:19.401Z,3.90
2023-08-17T16:55:54.072Z,3.75
2023-08-17T16:58:22.593Z,3.88
2023-08-17T17:00:50.557Z,3.80
2023-08-17T17:03:17.963Z,3.80
2023-08-17T17:05:45.638Z,4.20
2023-08-17T17:08:12.960Z,3.72
2023-08-17T17:10:40.521Z,3.65
2023-08-17T17:13:07.994Z,3.78
2023-08-17T17:15:35.634Z,3.83
2023-08-17T17:18:03.198Z,3.92
2023-08-17T17:20:32.145Z,3.88
2023-08-17T17:22:59.520Z,3.65
2023-08-17T17:25:27.087Z,3.60
2023-08-17T17:27:54.859Z,3.40
2023-08-17T17:30:22.456Z,3.45
2023-08-17T17:32:50.204Z,3.58
2023-08-17T17:35:17.793Z,3.30
2023-08-17T17:37:45.181Z,3.47
2023-08-17T17:40:12.993Z,3.70
2023-08-17T17:42:40.454Z,3.42
2023-08-17T17:45:08.348Z,3.53
2023-08-17T17:47:36.093Z,4.10
2023-08-17T17:50:05.915Z,3.50
2023-08-17T17:52:33.719Z,3.63
2023-08-17T17:55:01.673Z,4.03
2023-08-17T17:57:29.451Z,3.28
2023-08-17T17:59:57.599Z,3.42
2023-08-17T18:02:27.229Z,3.53
2023-08-17T18:04:54.992Z,3.40
2023-08-17T18:07:22.322Z,3.45
2023-08-17T18:09:49.987Z,3.35
2023-08-17T18:12:17.321Z,3.22
2023-08-17T18:14:45.142Z,3.95
2023-08-17T18:17:12.485Z,4.22
2023-08-17T18:19:40.078Z,3.92
2023-08-17T18:22:07.529Z,3.40
2023-08-17T18:24:35.094Z,3.80
2023-08-17T18:27:02.375Z,3.78
2023-08-17T18:29:29.959Z,3.70
2023-08-17T18:31:57.201Z,4.03
2023-08-17T18:34:25.010Z,4.03
2023-08-17T18:36:52.342Z,3.60
2023-08-17T18:39:19.973Z,3.67
2023-08-17T18:41:47.224Z,3.53
2023-08-17T18:44:14.783Z,3.67
2023-08-17T18:46:42.114Z,3.47
2023-08-17T18:49:09.747Z,3.90
2023-08-17T18:51:37.104Z,3.58
2023-08-17T18:54:05.130Z,3.50
2023-08-17T18:56:32.545Z,3.63
2023-08-17T18:59:00.103Z,3.72
2023-08-17T19:01:27.443Z,3.50
2023-08-17T19:03:55.303Z,3.78
2023-08-17T19:06:23.019Z,3.70
2023-08-17T19:08:50.581Z,4.13
2023-08-17T19:11:17.888Z,3.70
2023-08-17T19:13:45.472Z,3.53
2023-08-17T19:16:12.890Z,3.53
2023-08-17T19:18:40.490Z,3.00
2023-08-17T19:21:08.089Z,3.90
2023-08-17T19:23:35.893Z,3.65
2023-08-17T19:26:03.292Z,3.70
2023-08-17T19:28:30.902Z,3.53
2023-08-17T19:30:58.556Z,3.90
2023-08-17T19:33:26.158Z,3.70
2023-08-17T19:35:53.580Z,3.75
2023-08-17T19:38:22.876Z,3.83
2023-08-17T19:40:50.289Z,3.88
2023-08-17T19:43:18.331Z,4.18
2023-08-17T19:45:45.697Z,4.20
2023-08-17T19:48:13.352Z,4.10
2023-08-17T19:50:41.907Z,4.03
2023-08-17T19:53:09.738Z,4.03
2023-08-17T19:55:37.071Z,4.03
2023-08-17T19:58:04.987Z,4.07
2023-08-17T20:00:32.243Z,3.90
2023-08-17T20:03:00.094Z,3.60
2023-08-17T20:05:28.066Z,3.88
2023-08-17T20:07:55.711Z,4.35
2023-08-17T20:10:23.019Z,3.92
2023-08-17T20:12:50.636Z,3.85
2023-08-17T20:15:17.910Z,4.43
2023-08-17T20:17:45.603Z,4.07
2023-08-17T20:20:16.581Z,4.13
2023-08-17T20:22:44.945Z,4.22
2023-08-17T20:25:13.872Z,4.38
2023-08-17T20:27:43.383Z,4.15
2023-08-17T20:30:11.093Z,3.83
2023-08-17T20:32:42.162Z,4.32
2023-08-17T20:35:10.056Z,4.38
2023-08-17T20:37:38.464Z,3.90
2023-08-17T20:40:07.130Z,4.10
2023-08-17T20:42:34.757Z,3.97
2023-08-17T20:45:02.025Z,4.22
2023-08-17T20:47:29.972Z,3.92
2023-08-17T20:49:59.587Z,3.78
2023-08-17T20:52:27.213Z,3.95
2023-08-17T20:54:54.562Z,3.60
2023-08-17T20:57:22.326Z,4.13
2023-08-17T20:59:50.209Z,4.00
2023-08-17T21:02:17.729Z,3.70
2023-08-17T21:04:45.014Z,4.05
2023-08-17T21:07:12.701Z,3.70
2023-08-17T21:09:40.679Z,4.00
2023-08-17T21:12:08.330Z,4.20
2023-08-17T21:14:35.617Z,3.95
2023-08-17T21:17:03.212Z,4.05
2023-08-17T21:19:30.509Z,4.00
2023-08-17T21:21:58.080Z,3.58
2023-08-17T21:24:25.386Z,3.67
2023-08-17T21:26:52.915Z,3.90
2023-08-17T21:29:20.309Z,3.58
2023-08-17T21:31:50.527Z,3.72
2023-08-17T21:34:20.731Z,3.78
2023-08-17T21:36:48.453Z,3.30
2023-08-17T21:39:16.033Z,3.78
2023-08-17T21:41:43.670Z,3.45
2023-08-17T21:44:11.078Z,3.58
2023-08-17T21:46:40.780Z,3.60
2023-08-17T21:49:08.115Z,3.40
2023-08-17T21:51:35.710Z,3.33
2023-08-17T21:54:03.224Z,3.55
2023-08-17T21:56:30.827Z,3.58
2023-08-17T21:58:58.581Z,3.63
2023-08-17T22:01:26.138Z,3.53
2023-08-17T22:03:53.520Z,3.42
2023-08-17T22:06:21.745Z,3.38
2023-08-17T22:08:49.224Z,3.35
2023-08-17T22:11:16.849Z,3.42
2023-08-17T22:13:44.161Z,3.38
2023-08-17T22:16:11.712Z,3.28
2023-08-17T22:18:39.051Z,3.10
2023-08-17T22:21:06.709Z,3.20
2023-08-17T22:23:34.481Z,2.88
2023-08-17T22:26:02.047Z,2.88
2023-08-17T22:28:29.348Z,3.15
2023-08-17T22:31:07.617Z,3.08
2023-08-17T22:33:35.795Z,3.22
2023-08-17T22:36:04.320Z,3.22
2023-08-17T22:38:31.654Z,3.25
2023-08-17T22:40:59.203Z,2.90
2023-08-17T22:43:26.534Z,3.53
2023-08-17T22:45:54.156Z,3.38
2023-08-17T22:48:21.469Z,3.47
2023-08-17T22:50:49.146Z,2.83
2023-08-17T22:53:16.563Z,3.20
2023-08-17T22:55:44.104Z,3.40
2023-08-17T22:58:11.404Z,3.13
2023-08-17T23:00:40.178Z,3.40
2023-08-17T23:03:07.628Z,3.00
2023-08-17T23:05:35.362Z,3.15
2023-08-17T23:08:02.691Z,2.97
2023-08-17T23:10:30.384Z,3.10
2023-08-17T23:12:57.612Z,3.15
2023-08-17T23:15:25.356Z,3.40
2023-08-17T23:17:52.864Z,2.80
2023-08-17T23:20:20.590Z,3.08
2023-08-17T23:22:47.846Z,3.13
2023-08-17T23:25:15.624Z,2.72
2023-08-17T23:27:43.055Z,3.00
2023-08-17T23:30:12.271Z,2.90
2023-08-17T23:32:39.656Z,3.30
2023-08-17T23:35:07.896Z,3.20
2023-08-17T23:37:35.267Z,2.85
2023-08-17T23:40:03.895Z,3.10
2023-08-17T23:42:31.424Z,3.08
2023-08-17T23:44:59.086Z,2.67
2023-08-17T23:47:26.537Z,2.60
2023-08-17T23:49:54.351Z,2.88
2023-08-17T23:52:22.531Z,3.10
2023-08-17T23:54:50.056Z,3.05
2023-08-17T23:57:17.492Z,3.20
2023-08-17T23:59:45.377Z,3.00
